Time;durP1;ratioP1;P1;durP2;ratioP2;P2;SDS_P1;SDS_P2;PMS_P1;PMS_P2;Temp;Humidity;BMP_temperature;BMP_pressure;BME280_temperature;BME280_humidity;BME280_pressure;Samples;Min_cycle;Max_cycle;Signal;HPM_P1;HPM_P2
2022/04/20 00:00:06;;;;;;;6.23;3.30;;;;;;;11.95;46.61;95995.91;5076297;28;20218;-58
2022/04/20 00:02:33;;;;;;;3.17;2.93;;;;;;;11.98;47.51;95998.22;5074859;28;20233;-59
2022/04/20 00:05:02;;;;;;;2.97;2.77;;;;;;;11.94;47.97;95996.06;5065303;28;20226;-58
2022/04/20 00:07:28;;;;;;;2.83;2.63;;;;;;;11.87;46.89;95998.53;5069054;28;20206;-59
2022/04/20 00:09:56;;;;;;;3.23;2.93;;;;;;;11.85;47.28;96013.78;5077051;28;20206;-59
2022/04/20 00:12:24;;;;;;;3.20;2.93;;;;;;;11.86;47.40;96004.03;5069962;28;20230;-59
2022/04/20 00:14:52;;;;;;;3.00;2.80;;;;;;;11.83;47.57;96015.75;5071694;28;20206;-58
2022/04/20 00:17:21;;;;;;;3.33;3.03;;;;;;;11.78;47.13;96007.50;5077410;28;20216;-58
2022/04/20 00:19:48;;;;;;;3.00;2.80;;;;;;;11.89;47.27;96011.63;5075455;28;20249;-59
2022/04/20 00:22:14;;;;;;;3.50;2.87;;;;;;;11.87;47.43;96003.84;5080466;28;20209;-59
2022/04/20 00:24:40;;;;;;;2.80;2.60;;;;;;;11.76;47.42;95998.06;5079562;28;20226;-59
2022/04/20 00:27:14;;;;;;;3.30;2.67;;;;;;;11.81;47.45;95996.56;5108247;28;20205;-60
2022/04/20 00:29:40;;;;;;;3.07;2.87;;;;;;;11.83;47.74;95999.06;5101276;28;20197;-60
2022/04/20 00:32:08;;;;;;;4.47;2.97;;;;;;;11.79;48.36;95998.56;5090951;28;20198;-59
2022/04/20 00:34:37;;;;;;;2.93;2.73;;;;;;;11.74;48.55;96000.03;5062872;28;20238;-60
2022/04/20 00:37:04;;;;;;;3.10;2.90;;;;;;;11.64;49.01;96000.19;5079508;28;20213;-59
2022/04/20 00:39:33;;;;;;;2.50;2.33;;;;;;;11.58;50.83;95998.22;5089021;28;20278;-59
2022/04/20 00:41:59;;;;;;;2.80;2.60;;;;;;;11.47;49.83;95998.53;5094160;28;20206;-59
2022/04/20 00:44:27;;;;;;;2.67;2.47;;;;;;;11.42;49.52;96000.81;5098056;28;20234;-59
2022/04/20 00:46:54;;;;;;;4.10;2.50;;;;;;;11.30;52.48;95996.84;5098995;28;20212;-60
2022/04/20 00:49:22;;;;;;;3.07;2.73;;;;;;;11.27;52.13;96000.63;5098703;28;20210;-59
2022/04/20 00:51:53;;;;;;;3.10;2.80;;;;;;;11.16;53.49;96000.13;5089139;28;20210;-59
2022/04/20 00:54:20;;;;;;;2.70;2.60;;;;;;;11.10;53.13;96000.75;5090692;28;20202;-59
2022/04/20 00:56:47;;;;;;;2.33;2.20;;;;;;;11.09;53.47;96005.22;5094324;28;20203;-61
2022/04/20 00:59:16;;;;;;;2.93;2.73;;;;;;;11.05;54.16;96000.44;5084579;28;20214;-60
2022/04/20 01:01:46;;;;;;;2.57;2.30;;;;;;;10.97;54.68;96007.34;5079554;28;20263;-59
2022/04/20 01:04:15;;;;;;;2.90;2.23;;;;;;;10.96;54.29;95999.56;5080626;28;20213;-57
2022/04/20 01:06:43;;;;;;;2.53;2.43;;;;;;;10.94;54.56;95999.75;5070942;28;20225;-59
2022/04/20 01:09:11;;;;;;;2.70;2.50;;;;;;;10.87;54.28;96000.56;5062632;28;20536;-59
2022/04/20 01:11:39;;;;;;;2.70;2.50;;;;;;;10.72;55.71;96002.97;5060587;28;20199;-58
2022/04/20 01:14:06;;;;;;;2.67;2.47;;;;;;;10.72;56.08;95997.69;5062828;28;20221;-59
2022/04/20 01:16:32;;;;;;;2.90;2.63;;;;;;;10.68;55.75;96006.91;5075239;28;20206;-59
2022/04/20 01:19:01;;;;;;;2.90;2.70;;;;;;;10.61;56.30;95999.78;5074682;28;20221;-59
2022/04/20 01:21:30;;;;;;;3.00;2.70;;;;;;;10.51;56.90;95999.06;5075011;28;20205;-58
2022/04/20 01:23:57;;;;;;;2.70;2.50;;;;;;;10.46;57.59;95995.09;5067789;28;20206;-59
2022/04/20 01:26:25;;;;;;;2.70;2.50;;;;;;;10.45;55.84;95996.06;5075020;28;20222;-59
2022/04/20 01:28:53;;;;;;;2.60;2.40;;;;;;;10.46;54.98;95992.44;5074453;28;20218;-59
2022/04/20 01:31:20;;;;;;;2.70;2.50;;;;;;;10.47;56.17;95988.81;5062221;28;20209;-59
2022/04/20 01:33:46;;;;;;;3.27;2.53;;;;;;;10.48;55.86;95990.50;5082027;28;20728;-58
2022/04/20 01:36:14;;;;;;;3.20;2.53;;;;;;;10.46;56.57;95986.31;5074485;28;20205;-59
2022/04/20 01:38:43;;;;;;;2.43;2.23;;;;;;;10.41;56.59;95993.91;5072881;28;20213;-59
2022/04/20 01:41:10;;;;;;;2.93;2.67;;;;;;;10.38;56.62;95988.94;5061815;28;20209;-59
2022/04/20 01:43:37;;;;;;;3.73;2.97;;;;;;;10.37;56.31;95993.41;5075715;28;20548;-58
2022/04/20 01:46:04;;;;;;;2.90;2.70;;;;;;;10.40;56.29;95992.25;5074120;28;20225;-59
2022/04/20 01:48:31;;;;;;;5.87;3.00;;;;;;;10.33;54.89;95991.22;5082601;28;20455;-58
2022/04/20 01:53:45;;;;;;;3.37;3.03;;;;;;;10.37;55.18;95988.13;5073341;28;20302;-59
2022/04/20 01:56:11;;;;;;;2.60;2.40;;;;;;;10.32;56.31;95989.56;5074371;28;20207;-59
2022/04/20 01:58:40;;;;;;;2.70;2.50;;;;;;;10.34;56.38;95987.59;5069423;28;20546;-59
2022/04/20 02:03:48;;;;;;;3.77;3.37;;;;;;;10.24;56.37;95982.41;5076840;28;20272;-58
2022/04/20 02:06:15;;;;;;;3.80;2.63;;;;;;;10.22;55.08;95994.13;5062491;28;20231;-60
2022/04/20 02:08:43;;;;;;;2.50;2.30;;;;;;;10.15;57.40;95991.28;5088265;28;20213;-59
2022/04/20 02:11:11;;;;;;;2.77;2.57;;;;;;;10.14;57.91;95994.03;5095432;28;20178;-59
2022/04/20 02:13:39;;;;;;;3.00;2.80;;;;;;;10.11;57.75;95991.72;5107812;28;20208;-59
2022/04/20 02:16:07;;;;;;;3.43;2.90;;;;;;;10.05;56.96;95992.34;5086560;28;20235;-59
2022/04/20 02:18:34;;;;;;;2.50;2.30;;;;;;;9.83;58.66;95993.69;5076550;28;20563;-58
2022/04/20 02:21:00;;;;;;;5.37;2.67;;;;;;;9.80;60.67;96004.56;5077163;28;20198;-59
2022/04/20 02:23:27;;;;;;;3.03;2.73;;;;;;;9.69;61.01;95996.88;5075151;28;20235;-59
2022/04/20 02:25:57;;;;;;;2.73;2.53;;;;;;;9.70;60.48;95996.72;5086954;28;20667;-59
2022/04/20 02:28:23;;;;;;;3.13;2.83;;;;;;;9.65;61.00;95996.34;5062617;28;20213;-59
2022/04/20 02:30:50;;;;;;;4.03;2.50;;;;;;;9.62;61.03;95999.31;5076553;28;20214;-59
2022/04/20 02:33:17;;;;;;;3.63;2.73;;;;;;;9.64;58.35;95999.97;5082280;28;20613;-59
2022/04/20 02:35:43;;;;;;;3.10;2.70;;;;;;;9.56;56.29;95997.28;5077097;28;20198;-59
2022/04/20 02:38:11;;;;;;;3.07;2.77;;;;;;;9.55;56.68;95995.63;5090564;28;20216;-59
2022/04/20 02:40:37;;;;;;;3.10;2.87;;;;;;;9.57;57.08;95993.63;5076969;28;20643;-59
2022/04/20 02:43:09;;;;;;;3.37;3.00;;;;;;;9.56;55.56;95983.25;5077565;28;20311;-58
2022/04/20 02:45:36;;;;;;;3.20;3.00;;;;;;;9.47;55.64;95990.25;5082843;28;20227;-59
2022/04/20 02:48:03;;;;;;;3.00;2.70;;;;;;;9.49;56.44;95990.94;5077152;28;20207;-58
2022/04/20 02:50:30;;;;;;;3.30;2.97;;;;;;;9.42;55.39;95992.53;5077259;28;20224;-58
2022/04/20 02:52:57;;;;;;;2.80;2.60;;;;;;;9.44;56.62;95982.66;5073318;28;20210;-58
2022/04/20 02:55:24;;;;;;;3.27;2.93;;;;;;;9.41;56.27;95989.06;5073717;28;20201;-59
2022/04/20 02:57:52;;;;;;;3.53;2.60;;;;;;;9.38;56.60;95985.91;5067462;28;20207;-59
2022/04/20 03:00:20;;;;;;;3.63;2.90;;;;;;;9.37;56.72;95982.44;5072286;28;20206;-58
2022/04/20 03:02:47;;;;;;;3.20;3.00;;;;;;;9.37;57.46;95986.88;5076902;28;20221;-59
2022/04/20 03:05:13;;;;;;;3.10;2.77;;;;;;;9.32;57.81;95982.03;5071204;28;20571;-58
2022/04/20 03:07:40;;;;;;;2.87;2.67;;;;;;;9.26;58.48;95987.09;5088295;28;20202;-58
2022/04/20 03:10:08;;;;;;;3.57;2.80;;;;;;;9.23;57.63;95996.16;5070537;28;20525;-58
2022/04/20 03:12:34;;;;;;;3.00;2.70;;;;;;;9.25;57.08;95998.63;5056516;28;20214;-59
2022/04/20 03:15:01;;;;;;;2.73;2.53;;;;;;;9.32;57.93;95997.88;5081848;28;20538;-58
2022/04/20 03:17:30;;;;;;;3.20;3.00;;;;;;;9.25;56.65;95999.47;5075276;28;20549;-59
2022/04/20 03:19:58;;;;;;;3.33;2.93;;;;;;;9.18;56.33;95997.56;5081343;28;20202;-58
2022/04/20 03:22:26;;;;;;;6.47;3.00;;;;;;;9.16;56.92;96004.81;5072977;28;20209;-58
2022/04/20 03:24:53;;;;;;;3.27;2.97;;;;;;;9.10;57.00;96000.16;5073376;28;20267;-59
2022/04/20 03:27:21;;;;;;;4.17;2.77;;;;;;;9.07;57.49;96003.09;5076489;28;20211;-59
2022/04/20 03:29:48;;;;;;;3.87;3.20;;;;;;;9.07;56.64;96003.09;5069838;28;20576;-59
2022/04/20 03:32:16;;;;;;;3.67;3.20;;;;;;;9.04;56.97;96011.28;5073051;28;20214;-60
2022/04/20 03:34:46;;;;;;;5.87;3.17;;;;;;;9.02;58.81;96007.97;5074315;28;20238;-59
2022/04/20 03:37:15;;;;;;;2.93;2.77;;;;;;;9.06;58.50;96004.06;5063323;28;20650;-59
2022/04/20 03:39:42;;;;;;;3.40;3.10;;;;;;;8.96;59.19;96010.22;5067203;28;20203;-59
2022/04/20 03:42:09;;;;;;;4.77;3.90;;;;;;;8.95;59.24;96008.56;5062517;28;20207;-59
2022/04/20 03:44:37;;;;;;;3.20;2.70;;;;;;;8.96;57.98;96010.22;5076668;28;20258;-59
2022/04/20 03:47:06;;;;;;;3.67;3.10;;;;;;;8.98;57.53;96010.06;5075304;28;20261;-59
2022/04/20 03:49:34;;;;;;;3.53;3.23;;;;;;;8.83;58.32;96004.47;5068748;28;20566;-59
2022/04/20 03:52:02;;;;;;;4.83;3.10;;;;;;;8.78;57.47;96004.09;5077511;28;20298;-58
2022/04/20 03:54:30;;;;;;;3.97;3.57;;;;;;;8.83;58.75;96001.00;5068256;28;20249;-58
2022/04/20 03:57:04;;;;;;;4.43;3.30;;;;;;;8.71;59.67;95999.56;5069231;28;20206;-57
2022/04/20 03:59:32;;;;;;;5.37;3.20;;;;;;;8.62;60.05;96001.25;5064726;28;20218;-59
2022/04/20 04:01:59;;;;;;;3.27;3.00;;;;;;;8.54;61.79;96003.78;5077800;28;20210;-58
2022/04/20 04:04:25;;;;;;;5.97;3.10;;;;;;;8.48;61.53;96004.38;5066453;28;20217;-59
2022/04/20 04:06:53;;;;;;;3.63;3.33;;;;;;;8.47;61.20;95997.44;5072345;28;20552;-58
2022/04/20 04:09:21;;;;;;;3.80;3.30;;;;;;;8.45;60.39;95999.41;5070849;28;20643;-59
2022/04/20 04:11:48;;;;;;;3.50;3.20;;;;;;;8.48;61.29;96001.75;5075359;28;20213;-57
2022/04/20 04:14:16;;;;;;;3.57;3.10;;;;;;;8.32;61.58;95999.75;5066125;28;20213;-58
2022/04/20 04:16:43;;;;;;;3.43;3.13;;;;;;;8.44;61.42;96003.00;5068983;28;20648;-59
2022/04/20 04:19:11;;;;;;;3.30;3.10;;;;;;;8.45;60.76;96002.03;5072084;28;20204;-59
2022/04/20 04:21:40;;;;;;;3.47;3.07;;;;;;;8.26;62.40;96007.34;5067556;28;20206;-58
2022/04/20 04:24:34;;;;;;;3.23;3.03;;;;;;;8.17;62.56;96001.16;5069134;28;20212;-58
2022/04/20 04:26:58;;;;;;;3.80;3.50;;;;;;;8.16;59.63;96004.75;5087673;28;20236;-58
2022/04/20 04:29:25;;;;;;;3.90;3.50;;;;;;;8.17;59.44;96001.16;5083943;28;20977;-59
2022/04/20 04:31:51;;;;;;;3.87;3.57;;;;;;;8.22;59.55;96004.16;5095077;28;20194;-59
2022/04/20 04:34:18;;;;;;;3.77;3.47;;;;;;;8.22;61.62;96013.91;5100303;28;20227;-59
2022/04/20 04:36:44;;;;;;;5.37;3.53;;;;;;;8.24;61.38;96006.66;5118206;28;20182;-58
2022/04/20 04:39:11;;;;;;;3.60;3.30;;;;;;;8.19;61.15;96008.88;5104090;28;20203;-60
2022/04/20 04:41:38;;;;;;;3.80;3.50;;;;;;;8.19;62.76;96014.16;5080714;28;20210;-59
2022/04/20 04:44:06;;;;;;;6.20;3.90;;;;;;;8.10;63.69;96007.13;5074327;28;20210;-59
2022/04/20 04:49:17;;;;;;;7.13;3.80;;;;;;;8.15;60.36;96008.34;5081084;28;20209;-59
2022/04/20 04:51:44;;;;;;;4.73;3.77;;;;;;;8.24;60.29;96006.66;5063546;28;20214;-59
2022/04/20 04:54:10;;;;;;;3.60;3.40;;;;;;;8.49;60.21;96011.31;5082638;28;20224;-59
2022/04/20 04:56:38;;;;;;;3.83;3.60;;;;;;;8.58;58.49;96009.59;5074441;28;20187;-59
2022/04/20 04:59:06;;;;;;;4.73;3.77;;;;;;;8.69;59.08;96006.75;5081168;28;20234;-59
2022/04/20 05:01:34;;;;;;;4.10;3.70;;;;;;;8.78;59.04;96008.53;5071912;28;20219;-58
2022/04/20 05:04:02;;;;;;;3.90;3.67;;;;;;;8.78;58.06;96006.72;5089617;28;20233;-59
2022/04/20 05:06:30;;;;;;;4.23;3.83;;;;;;;8.76;59.09;96005.19;5069130;28;20239;-59
2022/04/20 05:08:57;;;;;;;3.80;3.50;;;;;;;8.65;61.34;96006.22;5089994;28;20219;-59
2022/04/20 05:11:26;;;;;;;3.87;3.47;;;;;;;8.70;60.09;96014.53;5097028;28;20222;-59
2022/04/20 05:13:53;;;;;;;5.77;3.93;;;;;;;8.75;59.17;96014.09;5075651;28;20203;-59
2022/04/20 05:16:23;;;;;;;4.27;3.97;;;;;;;8.80;59.49;96017.13;5068914;28;20271;-58
2022/04/20 05:18:51;;;;;;;4.63;4.20;;;;;;;8.85;58.34;96017.50;5074431;28;20209;-59
2022/04/20 05:21:19;;;;;;;5.77;3.70;;;;;;;8.72;58.87;96023.13;5072990;28;20214;-59
2022/04/20 05:23:46;;;;;;;5.57;4.10;;;;;;;8.60;59.16;96024.31;5064669;28;20640;-59
2022/04/20 05:26:19;;;;;;;4.47;4.17;;;;;;;8.66;59.69;96025.50;5069407;28;20241;-59
2022/04/20 05:28:46;;;;;;;7.30;4.77;;;;;;;8.74;58.54;96021.19;5074350;28;20244;-60
2022/04/20 05:31:12;;;;;;;7.03;4.13;;;;;;;8.77;58.89;96031.44;5073341;28;20210;-60
2022/04/20 05:33:41;;;;;;;8.60;4.60;;;;;;;8.78;59.49;96021.72;5063865;28;20585;-59
2022/04/20 05:36:07;;;;;;;4.53;4.13;;;;;;;8.82;59.34;96033.63;5072048;28;20205;-59
2022/04/20 05:44:02;;;;;;;7.27;4.20;;;;;;;9.70;54.46;96020.50;5068012;28;20256;-59
2022/04/20 05:46:30;;;;;;;4.40;4.00;;;;;;;9.81;54.27;96024.69;5060395;28;20582;-59
2022/04/20 05:48:59;;;;;;;6.23;4.20;;;;;;;10.31;53.04;96028.34;5076349;28;20235;-59
2022/04/20 05:51:26;;;;;;;4.40;4.00;;;;;;;10.61;52.06;96027.03;5075800;28;20214;-58
2022/04/20 05:53:52;;;;;;;5.37;4.17;;;;;;;11.47;49.86;96030.28;5070565;28;20222;-59
2022/04/20 05:56:19;;;;;;;5.57;4.40;;;;;;;12.10;48.09;96030.50;5078805;28;20544;-58
2022/04/20 05:58:47;;;;;;;4.87;4.40;;;;;;;12.40;47.06;96026.28;5079076;28;20217;-59
2022/04/20 06:01:16;;;;;;;5.23;4.43;;;;;;;13.21;45.00;96031.34;5079023;28;20578;-59
2022/04/20 06:03:45;;;;;;;4.33;3.70;;;;;;;13.35;43.78;96026.13;5075503;28;20215;-58
2022/04/20 06:06:15;;;;;;;4.70;3.70;;;;;;;13.32;43.95;96029.13;5068917;28;20317;-59
2022/04/20 06:08:42;;;;;;;6.40;3.90;;;;;;;13.66;43.94;96027.91;5082582;28;20247;-58
2022/04/20 06:11:11;;;;;;;11.80;4.23;;;;;;;13.74;43.57;96019.91;5076574;28;20202;-58
2022/04/20 06:13:38;;;;;;;5.23;4.10;;;;;;;13.85;42.63;96022.13;5077876;28;20217;-59
2022/04/20 06:16:06;;;;;;;4.03;3.70;;;;;;;14.08;42.85;96022.09;5075825;28;20210;-59
2022/04/20 06:18:35;;;;;;;4.00;3.70;;;;;;;13.72;42.79;96020.06;5078414;28;20275;-58
2022/04/20 06:21:02;;;;;;;5.70;4.10;;;;;;;14.03;42.56;96013.84;5076621;28;20213;-58
2022/04/20 06:23:30;;;;;;;3.87;3.60;;;;;;;13.71;43.11;96007.75;5071702;28;20214;-58
2022/04/20 06:25:57;;;;;;;4.20;3.80;;;;;;;14.19;42.64;96008.38;5076128;28;20230;-58
2022/04/20 06:28:33;;;;;;;4.83;3.70;;;;;;;13.82;43.42;96003.88;5073169;28;20215;-58
2022/04/20 06:31:00;;;;;;;5.67;4.30;;;;;;;14.22;44.62;96003.50;5061481;28;20214;-58
2022/04/20 06:33:27;;;;;;;11.67;4.23;;;;;;;14.21;43.40;95996.53;5077342;28;20581;-59
2022/04/20 06:35:54;;;;;;;5.57;3.80;;;;;;;14.21;42.64;95995.72;5073284;28;20535;-59
2022/04/20 06:38:21;;;;;;;5.90;3.90;;;;;;;14.14;41.96;96008.91;5067354;28;20616;-59
2022/04/20 06:40:49;;;;;;;4.20;3.80;;;;;;;14.51;41.98;96000.09;5073235;28;20680;-59
2022/04/20 06:43:20;;;;;;;5.20;4.10;;;;;;;14.47;41.65;96001.47;5068194;28;20210;-59
2022/04/20 06:45:47;;;;;;;6.00;3.80;;;;;;;14.49;40.17;96004.75;5077188;28;20224;-58
2022/04/20 06:48:14;;;;;;;4.43;3.57;;;;;;;14.15;42.41;96001.75;5079315;28;20232;-59
2022/04/20 06:50:42;;;;;;;6.20;3.70;;;;;;;14.11;42.69;96003.13;5069862;28;20202;-58
2022/04/20 06:58:39;;;;;;;5.53;3.80;;;;;;;14.72;40.31;95994.03;5081381;28;20194;-58
2022/04/20 07:01:07;;;;;;;4.10;3.80;;;;;;;14.49;41.43;96004.75;5088605;28;20305;-59
2022/04/20 07:03:34;;;;;;;4.20;3.80;;;;;;;14.36;40.59;95999.25;5079757;28;20274;-59
2022/04/20 07:06:02;;;;;;;4.03;3.70;;;;;;;14.52;41.34;95987.63;5088002;28;20202;-57
2022/04/20 07:08:29;;;;;;;3.20;3.00;;;;;;;14.92;40.50;95990.63;5072954;28;20218;-56
2022/04/20 07:10:59;;;;;;;3.77;3.47;;;;;;;15.12;40.56;95990.06;5070008;28;20202;-56
2022/04/20 07:13:26;;;;;;;3.63;3.43;;;;;;;14.78;40.95;95995.94;5074108;28;20210;-56
2022/04/20 07:15:52;;;;;;;3.80;3.50;;;;;;;15.15;40.31;95989.66;5073809;28;20214;-57
2022/04/20 07:18:20;;;;;;;3.87;3.50;;;;;;;15.40;40.53;95985.66;5072754;28;20259;-56
2022/04/20 07:20:47;;;;;;;4.77;3.50;;;;;;;15.64;39.99;95984.50;5069864;28;20194;-56
2022/04/20 07:23:17;;;;;;;3.63;3.40;;;;;;;15.53;39.48;95977.00;5059760;28;20199;-55
2022/04/20 07:25:44;;;;;;;4.57;3.80;;;;;;;15.59;38.98;95977.06;5070379;28;20259;-55
2022/04/20 07:28:12;;;;;;;4.70;3.50;;;;;;;15.93;38.56;95979.84;5075129;28;20234;-55
2022/04/20 07:30:38;;;;;;;7.90;3.87;;;;;;;15.92;39.14;95975.53;5060336;28;20203;-56
2022/04/20 07:33:06;;;;;;;5.23;3.80;;;;;;;15.81;39.38;95976.03;5069505;28;20301;-56
2022/04/20 07:35:33;;;;;;;4.63;3.65;;;;;;;16.16;38.75;95979.63;5073832;28;20264;-55
2022/04/20 07:37:59;;;;;;;5.40;3.90;;;;;;;15.95;40.90;95976.97;5076329;28;20331;-56
2022/04/20 07:40:26;;;;;;;3.50;3.20;;;;;;;16.53;38.65;95985.63;5074938;28;20213;-55
2022/04/20 07:42:55;;;;;;;4.43;3.83;;;;;;;16.08;37.11;95986.94;5080229;28;20214;-56
2022/04/20 07:45:26;;;;;;;4.53;3.60;;;;;;;16.24;38.82;95981.31;5070343;28;20203;-56
2022/04/20 07:47:55;;;;;;;3.60;3.30;;;;;;;16.22;38.97;95980.69;5069714;28;20222;-56
2022/04/20 07:50:23;;;;;;;3.90;3.60;;;;;;;16.37;38.52;95978.72;5068958;28;20199;-57
2022/04/20 07:52:55;;;;;;;4.20;3.70;;;;;;;16.40;37.59;95978.38;5082286;28;20557;-57
2022/04/20 07:55:22;;;;;;;4.03;3.45;;;;;;;16.12;39.32;95974.88;5081094;28;20245;-56
2022/04/20 07:57:52;;;;;;;3.75;3.47;;;;;;;16.49;37.05;95974.53;5071015;28;20556;-56
2022/04/20 08:00:22;;;;;;;3.92;3.05;;;;;;;16.75;38.92;95979.22;5076121;28;20215;-57
2022/04/20 08:03:07;;;;;;;3.75;3.45;;;;;;;16.87;37.82;95975.78;5078562;28;20206;-56
2022/04/20 08:05:35;;;;;;;5.80;3.35;;;;;;;17.10;36.44;95982.69;5071166;28;20207;-56
2022/04/20 08:08:01;;;;;;;4.25;3.58;;;;;;;16.82;36.76;95972.06;5065526;28;20223;-56
2022/04/20 08:10:28;;;;;;;6.57;3.40;;;;;;;16.96;37.11;95983.63;5073358;28;20203;-58
2022/04/20 08:12:54;;;;;;;4.05;3.40;;;;;;;17.07;36.27;95980.41;5075811;28;20646;-56
2022/04/20 08:15:20;;;;;;;3.55;2.90;;;;;;;17.03;36.55;95979.16;5074077;28;20207;-56
2022/04/20 08:17:47;;;;;;;3.85;3.05;;;;;;;17.04;36.40;95972.78;5098632;28;20198;-56
2022/04/20 08:20:16;;;;;;;3.28;2.92;;;;;;;16.90;36.01;95967.38;5099103;28;20179;-56
2022/04/20 08:22:44;;;;;;;6.30;3.42;;;;;;;17.22;36.62;95967.69;5083859;28;20209;-55
2022/04/20 08:25:12;;;;;;;4.78;3.10;;;;;;;16.96;35.44;95972.97;5067482;28;20618;-56
2022/04/20 08:27:40;;;;;;;4.25;3.20;;;;;;;17.28;34.92;95969.59;5070796;28;20679;-55
2022/04/20 08:30:08;;;;;;;5.18;3.30;;;;;;;17.44;35.70;95961.19;5075475;28;20203;-54
2022/04/20 08:32:38;;;;;;;4.00;3.45;;;;;;;17.81;36.30;95963.38;5075902;28;20624;-56
2022/04/20 08:35:07;;;;;;;3.15;2.95;;;;;;;17.74;35.41;95965.22;5076038;28;20330;-57
2022/04/20 08:37:35;;;;;;;3.58;3.28;;;;;;;17.72;34.06;95972.59;5082821;28;20202;-55
2022/04/20 08:40:02;;;;;;;3.83;3.25;;;;;;;17.94;34.19;95975.91;5060071;28;20584;-55
2022/04/20 08:42:30;;;;;;;3.05;2.67;;;;;;;18.09;34.09;95973.88;5069313;28;20625;-54
2022/04/20 08:45:01;;;;;;;3.30;3.00;;;;;;;18.26;33.77;95979.63;5069206;28;20639;-55
2022/04/20 08:47:29;;;;;;;4.75;3.13;;;;;;;18.34;32.49;95984.78;5068834;28;20218;-56
2022/04/20 08:49:58;;;;;;;3.92;2.97;;;;;;;18.40;33.23;95981.25;5069652;28;20223;-56
2022/04/20 08:52:42;;;;;;;3.00;2.50;;;;;;;18.42;33.57;95980.00;5070400;28;20572;-55
2022/04/20 08:55:11;;;;;;;3.35;2.95;;;;;;;18.28;33.67;95980.25;5073265;28;20238;-56
2022/04/20 08:57:38;;;;;;;3.22;3.03;;;;;;;18.50;34.31;95981.66;5078384;28;20210;-56
2022/04/20 09:00:08;;;;;;;4.88;3.33;;;;;;;18.62;34.31;95974.69;5074048;28;20704;-55
2022/04/20 09:02:35;;;;;;;3.38;3.03;;;;;;;18.67;33.72;95974.84;5070485;28;20203;-56
2022/04/20 09:05:03;;;;;;;3.42;3.20;;;;;;;19.11;34.10;95974.13;5084605;28;20658;-55
2022/04/20 09:07:31;;;;;;;3.83;2.90;;;;;;;18.80;32.81;95982.06;5070470;28;20225;-55
2022/04/20 09:09:57;;;;;;;5.07;3.25;;;;;;;18.87;32.61;95972.16;5062404;28;20293;-56
2022/04/20 09:12:26;;;;;;;3.38;3.10;;;;;;;18.68;33.15;95968.47;5072077;28;20202;-55
2022/04/20 09:14:55;;;;;;;4.32;2.97;;;;;;;18.86;34.70;95976.69;5068014;28;20217;-56
2022/04/20 09:17:22;;;;;;;3.20;2.90;;;;;;;18.65;31.73;95979.59;5070380;28;20202;-55
2022/04/20 09:19:51;;;;;;;4.80;3.03;;;;;;;18.53;33.20;95975.91;5074720;28;20520;-56
2022/04/20 09:22:21;;;;;;;3.28;3.00;;;;;;;19.14;32.47;95973.69;5069640;28;20285;-58
2022/04/20 09:25:08;;;;;;;3.40;3.13;;;;;;;19.10;33.42;95967.09;5058727;28;20199;-55
2022/04/20 09:27:37;;;;;;;3.33;3.03;;;;;;;19.14;32.71;95970.19;5096052;28;20226;-57
2022/04/20 09:30:10;;;;;;;5.78;3.05;;;;;;;19.31;32.58;95963.28;5084939;28;20225;-56
2022/04/20 09:32:39;;;;;;;4.60;2.97;;;;;;;19.57;31.32;95962.38;5091882;28;20308;-57
2022/04/20 09:35:08;;;;;;;3.15;2.95;;;;;;;19.49;31.11;95966.13;5069459;28;20256;-55
2022/04/20 09:37:36;;;;;;;4.53;3.15;;;;;;;18.91;31.87;95961.81;5078707;28;20206;-55
2022/04/20 09:40:04;;;;;;;3.50;3.20;;;;;;;18.68;33.31;95956.94;5078696;28;20202;-55
2022/04/20 09:42:35;;;;;;;4.18;3.00;;;;;;;19.14;31.83;95957.59;5068014;28;20203;-56
2022/04/20 09:45:05;;;;;;;3.63;2.92;;;;;;;19.41;32.75;95957.50;5073665;28;20221;-56
2022/04/20 09:50:21;;;;;;;2.95;2.75;;;;;;;19.52;31.75;95949.59;5078243;28;20279;-56
2022/04/20 09:52:49;;;;;;;6.13;3.97;;;;;;;19.64;31.78;95952.44;5066753;28;21680;-56
2022/04/20 09:55:27;;;;;;;3.00;2.80;;;;;;;19.57;32.21;95941.75;5077593;28;20217;-55
2022/04/20 09:58:09;;;;;;;3.28;3.08;;;;;;;19.36;31.37;95940.19;5070237;28;20207;-56
2022/04/20 10:00:40;;;;;;;3.63;3.35;;;;;;;19.46;31.96;95937.06;5095989;28;20212;-57
2022/04/20 10:03:06;;;;;;;3.25;2.90;;;;;;;19.31;32.68;95947.22;5089790;28;20199;-55
2022/04/20 10:05:33;;;;;;;3.60;3.30;;;;;;;18.94;32.98;95934.59;5072793;28;20206;-55
2022/04/20 10:08:00;;;;;;;3.42;3.13;;;;;;;19.07;31.93;95931.88;5069731;28;20230;-57
2022/04/20 10:10:27;;;;;;;4.15;2.78;;;;;;;19.58;32.36;95938.03;5082941;28;20293;-56
2022/04/20 10:12:55;;;;;;;3.47;3.17;;;;;;;19.95;31.92;95938.16;5066493;28;20209;-56
2022/04/20 10:18:10;;;;;;;4.03;3.08;;;;;;;19.75;32.13;95933.78;5077570;28;20629;-57
2022/04/20 10:20:38;;;;;;;3.40;3.10;;;;;;;19.51;31.08;95931.88;5075708;28;20190;-55
2022/04/20 10:23:06;;;;;;;4.50;3.13;;;;;;;19.93;32.27;95941.09;5074474;28;20199;-56
2022/04/20 10:25:32;;;;;;;3.78;2.95;;;;;;;20.39;31.34;95929.16;5073040;28;20202;-57
2022/04/20 10:28:14;;;;;;;4.63;3.28;;;;;;;19.48;32.24;95943.03;5077795;28;20234;-58
2022/04/20 10:30:50;;;;;;;4.68;2.90;;;;;;;19.98;31.69;95948.50;5070309;28;20214;-57
2022/04/20 10:33:19;;;;;;;4.95;3.40;;;;;;;19.78;31.92;95949.44;5076170;28;20230;-58
2022/04/20 10:35:56;;;;;;;3.10;2.90;;;;;;;20.01;31.29;95942.69;5079622;28;20211;-57
2022/04/20 10:38:23;;;;;;;3.00;2.80;;;;;;;20.04;31.18;95937.69;5077129;28;20622;-59
2022/04/20 10:41:10;;;;;;;2.95;2.75;;;;;;;20.02;32.27;95934.38;5085344;28;20218;-58
2022/04/20 10:43:39;;;;;;;3.58;2.80;;;;;;;20.07;31.62;95925.69;5084283;28;20207;-54
2022/04/20 10:46:11;;;;;;;4.28;2.70;;;;;;;20.00;30.58;95924.94;5073955;28;20247;-54
2022/04/20 10:48:52;;;;;;;4.40;3.25;;;;;;;20.01;31.47;95926.56;5071050;28;20301;-56
2022/04/20 10:51:19;;;;;;;4.10;3.17;;;;;;;20.03;32.22;95917.25;5076372;28;20205;-56
2022/04/20 10:53:48;;;;;;;3.05;2.85;;;;;;;20.11;31.17;95916.16;5063562;28;20218;-57
2022/04/20 10:56:15;;;;;;;3.58;3.00;;;;;;;20.12;32.22;95915.13;5085985;28;20504;-61
2022/04/20 10:58:51;;;;;;;3.10;2.70;;;;;;;20.23;32.35;95904.47;5075227;28;20213;-61
2022/04/20 11:01:20;;;;;;;3.05;2.70;;;;;;;20.48;31.88;95911.69;5071314;28;20227;-60
2022/04/20 11:04:04;;;;;;;3.05;2.75;;;;;;;20.66;33.16;95904.47;5073008;28;20622;-61
2022/04/20 11:07:06;;;;;;;2.90;2.70;;;;;;;20.27;31.28;95889.59;5078867;28;20203;-59
2022/04/20 11:09:52;;;;;;;3.17;2.90;;;;;;;20.35;31.80;95896.56;5083364;28;20210;-60
2022/04/20 11:18:39;;;;;;;11.10;3.53;;;;;;;19.80;32.84;95884.84;5075421;28;20194;-59
2022/04/20 11:21:21;;;;;;;3.90;2.85;;;;;;;19.65;33.31;95887.84;5076032;28;20560;-60
2022/04/20 11:23:53;;;;;;;3.47;3.28;;;;;;;19.59;30.99;95885.22;5061212;28;20305;-59
2022/04/20 11:26:21;;;;;;;3.80;3.22;;;;;;;19.94;31.00;95877.50;5076514;28;20294;-59
2022/04/20 11:28:48;;;;;;;3.10;2.90;;;;;;;19.80;31.85;95876.81;5075470;28;20264;-60
2022/04/20 11:31:15;;;;;;;3.50;3.30;;;;;;;19.77;32.66;95878.03;5074080;28;20210;-59
2022/04/20 11:33:42;;;;;;;3.10;2.80;;;;;;;19.76;31.06;95876.41;5087367;28;20234;-58
2022/04/20 11:36:13;;;;;;;3.80;3.25;;;;;;;19.95;31.29;95873.75;5082478;28;20209;-59
2022/04/20 11:38:44;;;;;;;3.28;3.08;;;;;;;19.93;31.33;95881.22;5081914;28;20234;-61
2022/04/20 11:41:12;;;;;;;4.00;2.90;;;;;;;19.81;32.13;95873.06;5085668;28;20658;-59
2022/04/20 11:43:39;;;;;;;3.65;3.13;;;;;;;19.25;31.17;95870.34;5069555;28;20649;-59
2022/04/20 11:46:07;;;;;;;6.30;3.63;;;;;;;19.07;30.80;95870.22;5068728;28;20207;-59
2022/04/20 11:48:35;;;;;;;3.20;2.90;;;;;;;19.43;32.01;95875.00;5097548;28;20230;-59
2022/04/20 11:51:03;;;;;;;3.72;3.42;;;;;;;19.44;32.72;95877.47;5093043;28;20215;-58
2022/04/20 11:53:33;;;;;;;3.45;3.15;;;;;;;19.91;33.42;95878.75;5081371;28;20211;-59
2022/04/20 11:56:03;;;;;;;2.88;2.67;;;;;;;19.91;31.13;95877.94;5082931;28;20237;-59
2022/04/20 11:58:33;;;;;;;4.05;3.08;;;;;;;20.10;31.31;95866.19;5100331;28;20206;-58
2022/04/20 12:01:03;;;;;;;6.97;3.28;;;;;;;19.68;31.09;95874.00;5085995;28;20217;-60
2022/04/20 12:03:31;;;;;;;3.80;3.50;;;;;;;19.88;32.07;95863.91;5084953;28;20171;-58
2022/04/20 12:06:02;;;;;;;3.47;3.03;;;;;;;20.23;32.31;95860.69;5104359;28;20206;-58
2022/04/20 12:08:30;;;;;;;4.70;3.17;;;;;;;19.77;30.89;95864.63;5095475;28;20230;-59
2022/04/20 12:10:57;;;;;;;4.63;3.60;;;;;;;19.66;31.76;95857.28;5074643;28;20249;-59
2022/04/20 12:13:29;;;;;;;3.70;3.15;;;;;;;20.08;31.59;95852.19;5087038;28;20217;-60